Airfield :
LOGIN :

Register | Disclaimer

   EN    FR    IT 

 










Legend :    VFR   Marginal VFR   IFR   Intensive IFR   Very Intensive IFR
Visi :
Ceiling :
>= 8 km
>= 3000ft
5 to 8 km
1000 to 3000 ft
1500m to 5 km
500 to 1000 ft
800 to 1500m
200 to 500 ft
< 800m
< 200 ft
Symbols :   Thunderstorms  Fog  Heavy snow  Heavy precipitations  Wind > 20 kt
SIGMETs :     Misc.  Thunderstorms  Icing  Turbulence  Mountain Waves  Volcanic Ashes







- Airport Elevation : 79 ft
- IATA code : SPU


LDSP - Split

CURRENT METAR :
  • 200000Z AUTO 29003KT 9999 FEW016/// SCT019/// BKN076/// 15/13 Q1006

EXPIRED METARs :
  • 192330Z AUTO 31003KT 250V350 9999 FEW019/// SCT021/// BKN080/// 15/13 Q1006
  • 192300Z AUTO VRB02KT 9999 -SHRA FEW019/// SCT046/// BKN064/// 15/14 Q1006
  • 192230Z AUTO VRB01KT 9999 -SHRA FEW020/// BKN023/// BKN032/// 15/13 Q1006
  • 192200Z 23004KT 9999 -RA SCT020 BKN040 16/13 Q1006 NOSIG
  • 192130Z 17003KT 140V200 9999 SCT022 BKN040 16/13 Q1006 NOSIG

TAF TAF LDSP
Valid from the 20 at 00:00 until the 21 at 00:00 UTC


192325Z 2000/2100 VRB02KT 9999 SCT045 TX18/2013Z TN13/2005Z
PROB30
TEMPO 2000/2002 TSRA FEW030CB
PROB30
TEMPO 2010/2022 TSRA FEW040CB
No reported NOTAMs for that airfield.



MET'MAP, your aeronautical weather chart ! - Copyright ORBIFLY December 2007 - Disclaimer

ORBIFLY MET'MAP TEAM :

Programming & Development : Alexandra Zaïnal
Concept & Development : Baudouin d'Aumeries
Co-Development & Prog : Marc-Olivier Méhu
Technical & hardware support : Manuel Goepfert

Contact : metmap@orbifly.com




SOURCES & CREDITS :

   NOAA